createdAt,value
2019-05-25T00:01:45.014Z,14.10
2019-05-25T00:04:13.425Z,14.10
2019-05-25T00:06:41.885Z,14.00
2019-05-25T00:09:10.281Z,13.90
2019-05-25T00:11:38.723Z,13.90
2019-05-25T00:14:07.139Z,13.90
2019-05-25T00:16:35.576Z,13.90
2019-05-25T00:19:04.057Z,13.80
2019-05-25T00:21:32.518Z,13.80
2019-05-25T00:24:11.621Z,13.80
2019-05-25T00:26:31.179Z,13.80
2019-05-25T00:28:59.623Z,13.80
2019-05-25T00:31:28.040Z,13.70
2019-05-25T00:33:56.476Z,13.70
2019-05-25T00:36:25.061Z,13.70
2019-05-25T00:38:53.506Z,13.60
2019-05-25T00:41:22.003Z,13.60
2019-05-25T00:43:50.439Z,13.60
2019-05-25T00:46:18.852Z,13.60
2019-05-25T00:48:47.296Z,13.50
2019-05-25T00:51:15.720Z,13.50
2019-05-25T00:53:44.144Z,13.50
2019-05-25T00:56:12.564Z,13.50
2019-05-25T00:58:40.988Z,13.40
2019-05-25T01:01:09.445Z,13.40
2019-05-25T01:03:37.941Z,13.40
2019-05-25T01:06:07.911Z,13.30
2019-05-25T01:08:36.343Z,13.30
2019-05-25T01:11:04.765Z,13.20
2019-05-25T01:13:33.205Z,13.20
2019-05-25T01:16:01.643Z,13.20
2019-05-25T01:18:30.401Z,13.20
2019-05-25T01:20:58.845Z,13.20
2019-05-25T01:23:27.387Z,13.10
2019-05-25T01:25:55.809Z,13.10
2019-05-25T01:28:24.246Z,13.10
2019-05-25T01:30:52.681Z,13.00
2019-05-25T01:33:21.113Z,13.00
2019-05-25T01:35:49.539Z,13.00
2019-05-25T01:38:17.973Z,13.00
2019-05-25T01:40:46.394Z,13.00
2019-05-25T01:43:14.826Z,12.90
2019-05-25T01:45:43.349Z,12.90
2019-05-25T01:48:11.762Z,12.90
2019-05-25T01:50:40.202Z,12.90
2019-05-25T01:53:11.535Z,12.90
2019-05-25T01:55:38.854Z,13.00
2019-05-25T01:58:07.270Z,13.00
2019-05-25T02:03:30.954Z,13.10
2019-05-25T02:05:59.399Z,13.20
2019-05-25T02:08:27.818Z,13.30
2019-05-25T02:10:56.250Z,13.30
2019-05-25T02:13:24.675Z,13.30
2019-05-25T02:15:53.157Z,13.30
2019-05-25T02:18:21.602Z,13.20
2019-05-25T02:20:50.030Z,13.10
2019-05-25T02:23:18.447Z,13.10
2019-05-25T02:25:46.886Z,13.10
2019-05-25T02:28:15.302Z,13.20
2019-05-25T02:30:43.732Z,13.20
2019-05-25T02:33:12.163Z,13.20
2019-05-25T02:35:40.608Z,13.20
2019-05-25T02:38:09.023Z,13.20
2019-05-25T02:40:37.471Z,13.30
2019-05-25T02:43:05.974Z,13.30
2019-05-25T02:45:34.527Z,13.40
2019-05-25T02:48:02.954Z,13.30
2019-05-25T02:50:31.455Z,13.30
2019-05-25T02:52:59.887Z,13.30
2019-05-25T02:55:34.556Z,13.30
2019-05-25T02:57:58.499Z,13.30
2019-05-25T03:00:34.485Z,13.40
2019-05-25T03:03:03.552Z,13.40
2019-05-25T03:05:32.104Z,13.40
2019-05-25T03:08:00.704Z,13.40
2019-05-25T03:10:29.479Z,13.40
2019-05-25T03:12:59.582Z,13.50
2019-05-25T03:15:28.015Z,13.50
2019-05-25T03:17:56.447Z,13.50
2019-05-25T03:20:24.861Z,13.50
2019-05-25T03:22:53.323Z,13.50
2019-05-25T03:25:21.755Z,13.50
2019-05-25T03:27:50.203Z,13.50
2019-05-25T03:30:33.244Z,13.40
2019-05-25T03:33:01.876Z,13.30
2019-05-25T03:35:31.000Z,13.40
2019-05-25T03:37:59.712Z,13.30
2019-05-25T03:40:28.124Z,13.20
2019-05-25T03:42:56.811Z,13.10
2019-05-25T03:45:25.233Z,13.20
2019-05-25T03:47:53.672Z,13.20
2019-05-25T03:50:22.171Z,13.30
2019-05-25T03:52:50.619Z,13.30
2019-05-25T03:55:19.059Z,13.30
2019-05-25T03:57:47.517Z,13.30
2019-05-25T04:00:17.737Z,13.30
2019-05-25T04:02:46.177Z,13.30
2019-05-25T04:05:14.666Z,13.40
2019-05-25T04:07:43.269Z,13.30
2019-05-25T04:10:13.312Z,13.30
2019-05-25T04:12:41.739Z,13.30
2019-05-25T04:15:10.255Z,13.30
2019-05-25T04:17:38.738Z,13.40
2019-05-25T04:20:07.802Z,13.40
2019-05-25T04:22:36.243Z,13.40
2019-05-25T04:25:06.603Z,13.40
2019-05-25T04:27:35.043Z,13.50
2019-05-25T04:30:05.219Z,13.60
2019-05-25T04:32:33.664Z,13.60
2019-05-25T04:35:02.132Z,13.60
2019-05-25T04:37:30.560Z,13.60
2019-05-25T04:39:58.976Z,13.70
2019-05-25T04:42:27.416Z,13.70
2019-05-25T04:44:55.920Z,13.80
2019-05-25T04:47:26.940Z,13.80
2019-05-25T04:49:54.512Z,13.70
2019-05-25T04:52:22.961Z,13.60
2019-05-25T04:54:51.383Z,13.60
2019-05-25T04:57:19.816Z,13.60
2019-05-25T04:59:48.248Z,13.60
2019-05-25T05:02:16.679Z,13.60
2019-05-25T05:04:45.109Z,13.70
2019-05-25T05:07:13.540Z,13.80
2019-05-25T05:09:41.957Z,13.80
2019-05-25T05:12:10.401Z,13.90
2019-05-25T05:14:38.832Z,13.90
2019-05-25T05:17:07.268Z,13.90
2019-05-25T05:19:35.692Z,13.90
2019-05-25T05:22:05.976Z,14.10
2019-05-25T05:24:34.277Z,14.20
2019-05-25T05:27:02.733Z,14.20
2019-05-25T05:29:31.154Z,14.30
2019-05-25T05:31:59.590Z,14.30
2019-05-25T05:34:28.154Z,14.30
2019-05-25T05:36:57.511Z,14.40
2019-05-25T05:39:27.858Z,14.40
2019-05-25T05:41:57.921Z,14.50
2019-05-25T05:44:28.304Z,14.60
2019-05-25T05:46:59.050Z,14.70
2019-05-25T05:49:29.242Z,14.80
2019-05-25T05:52:00.737Z,14.80
2019-05-25T05:54:30.517Z,14.80
2019-05-25T05:57:11.781Z,14.80
2019-05-25T05:59:29.104Z,14.80
2019-05-25T06:01:57.518Z,14.80
2019-05-25T06:04:25.973Z,14.70
2019-05-25T06:06:54.392Z,14.80
2019-05-25T06:09:22.895Z,14.90
2019-05-25T06:11:51.361Z,14.90
2019-05-25T06:14:19.854Z,15.10
2019-05-25T06:16:48.266Z,15.20
2019-05-25T06:19:16.695Z,15.20
2019-05-25T06:21:45.102Z,15.20
2019-05-25T06:24:13.542Z,15.20
2019-05-25T06:26:41.982Z,15.20
2019-05-25T06:29:10.418Z,15.30
2019-05-25T06:31:38.831Z,15.40
2019-05-25T06:34:07.279Z,15.40
2019-05-25T06:36:35.694Z,15.40
2019-05-25T06:39:06.772Z,15.30
2019-05-25T06:41:35.211Z,15.30
2019-05-25T06:44:04.158Z,15.30
2019-05-25T06:46:32.603Z,15.30
2019-05-25T06:49:01.015Z,15.20
2019-05-25T06:51:29.442Z,15.10
2019-05-25T06:53:57.867Z,15.00
2019-05-25T06:56:26.303Z,14.90
2019-05-25T06:58:54.706Z,14.80
2019-05-25T07:01:23.140Z,14.80
2019-05-25T07:03:51.828Z,14.90
2019-05-25T07:06:20.267Z,15.00
2019-05-25T07:08:48.684Z,15.10
2019-05-25T07:11:17.120Z,15.30
2019-05-25T07:13:45.560Z,15.50
2019-05-25T07:16:13.988Z,15.70
2019-05-25T07:18:42.429Z,15.90
2019-05-25T07:21:10.849Z,16.00
2019-05-25T07:23:39.269Z,16.20
2019-05-25T07:26:07.711Z,16.40
2019-05-25T07:28:36.136Z,16.50
2019-05-25T07:31:04.561Z,16.70
2019-05-25T07:33:32.974Z,16.80
2019-05-25T07:36:01.413Z,16.70
2019-05-25T07:38:29.853Z,16.70
2019-05-25T07:40:58.303Z,16.80
2019-05-25T07:43:26.750Z,16.90
2019-05-25T07:45:55.197Z,17.10
2019-05-25T07:48:23.642Z,17.50
2019-05-25T07:50:52.321Z,17.80
2019-05-25T07:53:20.754Z,18.20
2019-05-25T07:55:49.178Z,18.30
2019-05-25T07:58:18.606Z,18.40
2019-05-25T08:00:47.410Z,18.30
2019-05-25T08:03:15.851Z,18.30
2019-05-25T08:05:44.267Z,18.20
2019-05-25T08:08:12.702Z,18.10
2019-05-25T08:10:41.115Z,18.00
2019-05-25T08:13:09.579Z,18.10
2019-05-25T08:15:37.992Z,18.10
2019-05-25T08:18:06.420Z,18.20
2019-05-25T08:20:34.864Z,18.20
2019-05-25T08:23:03.291Z,18.30
2019-05-25T08:25:31.736Z,18.50
2019-05-25T08:28:00.153Z,18.60
2019-05-25T08:30:28.586Z,18.60
2019-05-25T08:32:57.016Z,18.60
2019-05-25T08:35:25.517Z,18.80
2019-05-25T08:37:53.973Z,19.00
2019-05-25T08:40:22.384Z,19.10
2019-05-25T08:42:50.821Z,19.00
2019-05-25T08:45:19.384Z,18.80
2019-05-25T08:47:47.837Z,18.70
2019-05-25T08:50:16.344Z,18.40
2019-05-25T08:52:44.795Z,18.40
2019-05-25T08:55:13.399Z,18.40
2019-05-25T08:57:41.815Z,18.30
2019-05-25T09:00:10.899Z,18.30
2019-05-25T09:02:39.316Z,18.30
2019-05-25T09:05:08.579Z,18.40
2019-05-25T09:07:37.034Z,18.70
2019-05-25T09:10:07.466Z,18.70
2019-05-25T09:12:35.909Z,18.90
2019-05-25T09:15:06.156Z,18.80
2019-05-25T09:17:34.834Z,19.00
2019-05-25T09:20:05.088Z,19.10
2019-05-25T09:22:33.528Z,19.10
2019-05-25T09:25:02.001Z,19.10
2019-05-25T09:27:30.465Z,19.20
2019-05-25T09:29:58.884Z,19.50
2019-05-25T09:32:27.335Z,19.90
2019-05-25T09:34:55.764Z,19.90
2019-05-25T09:37:24.200Z,19.80
2019-05-25T09:39:52.640Z,19.60
2019-05-25T09:42:21.077Z,19.50
2019-05-25T09:44:49.534Z,19.30
2019-05-25T09:47:18.041Z,19.10
2019-05-25T09:49:46.505Z,19.00
2019-05-25T09:52:14.973Z,18.80
2019-05-25T09:54:43.412Z,18.50
2019-05-25T09:57:11.932Z,18.40
2019-05-25T09:59:40.416Z,18.40
2019-05-25T10:02:09.020Z,18.60
2019-05-25T10:04:37.456Z,18.70
2019-05-25T10:07:05.940Z,18.70
2019-05-25T10:09:34.381Z,18.60
2019-05-25T10:12:03.429Z,18.50
2019-05-25T10:14:31.872Z,18.60
2019-05-25T10:17:00.304Z,18.50
2019-05-25T10:19:28.863Z,18.70
2019-05-25T10:21:59.506Z,18.90
2019-05-25T10:24:27.549Z,19.00
2019-05-25T10:26:55.972Z,19.20
2019-05-25T10:29:36.568Z,19.30
2019-05-25T10:31:54.561Z,19.50
2019-05-25T10:34:23.013Z,19.60
2019-05-25T10:36:51.444Z,19.50
2019-05-25T10:39:19.864Z,19.40
2019-05-25T10:41:48.325Z,19.30
2019-05-25T10:44:16.736Z,19.20
2019-05-25T10:46:45.179Z,19.10
2019-05-25T10:49:13.603Z,18.90
2019-05-25T10:51:42.038Z,18.80
2019-05-25T10:54:10.464Z,18.70
2019-05-25T10:56:38.975Z,18.80
2019-05-25T10:59:07.399Z,18.90
2019-05-25T11:01:35.837Z,19.00
2019-05-25T11:04:04.331Z,19.10
2019-05-25T11:06:34.814Z,19.00
2019-05-25T11:09:02.985Z,19.20
2019-05-25T11:11:31.430Z,19.20
2019-05-25T11:13:59.867Z,19.20
2019-05-25T11:16:28.286Z,19.00
2019-05-25T11:18:56.715Z,19.00
2019-05-25T11:21:25.154Z,19.10
2019-05-25T11:23:53.582Z,19.30
2019-05-25T11:26:22.029Z,19.30
2019-05-25T11:28:50.469Z,19.50
2019-05-25T11:31:18.914Z,19.70
2019-05-25T11:33:47.325Z,19.80
2019-05-25T11:36:15.758Z,19.90
2019-05-25T11:38:44.222Z,20.10
2019-05-25T11:41:12.715Z,20.30
2019-05-25T11:43:41.160Z,20.30
2019-05-25T11:46:09.583Z,20.10
2019-05-25T11:48:38.031Z,20.10
2019-05-25T11:51:06.463Z,20.20
2019-05-25T11:53:34.894Z,20.20
2019-05-25T11:56:03.327Z,20.30
2019-05-25T11:58:39.096Z,20.50
2019-05-25T12:01:01.943Z,20.50
2019-05-25T12:03:30.375Z,20.40
2019-05-25T12:05:58.792Z,20.50
2019-05-25T12:08:27.234Z,20.40
2019-05-25T12:10:55.642Z,20.40
2019-05-25T12:13:24.075Z,20.60
2019-05-25T12:15:52.566Z,20.70
2019-05-25T12:18:21.008Z,20.80
2019-05-25T12:20:49.433Z,20.70
2019-05-25T12:23:17.874Z,20.70
2019-05-25T12:25:46.326Z,20.90
2019-05-25T12:28:14.743Z,20.90
2019-05-25T12:30:43.170Z,20.90
2019-05-25T12:33:11.634Z,20.90
2019-05-25T12:35:40.390Z,21.00
2019-05-25T12:38:08.881Z,21.20
2019-05-25T12:40:52.452Z,21.50
2019-05-25T12:43:07.458Z,21.80
2019-05-25T12:45:35.886Z,22.20
2019-05-25T12:48:05.437Z,22.70
2019-05-25T12:50:33.870Z,22.90
2019-05-25T12:53:02.295Z,22.90
2019-05-25T12:55:30.723Z,22.90
2019-05-25T12:57:59.158Z,22.60
2019-05-25T13:00:27.571Z,22.70
2019-05-25T13:02:56.002Z,23.00
2019-05-25T13:05:33.724Z,23.30
2019-05-25T13:07:54.575Z,23.60
2019-05-25T13:10:23.010Z,23.90
2019-05-25T13:12:51.428Z,23.80
2019-05-25T13:15:19.925Z,23.50
2019-05-25T13:17:48.353Z,23.80
2019-05-25T13:20:17.031Z,24.30
2019-05-25T13:22:45.446Z,24.50
2019-05-25T13:25:13.959Z,24.40
2019-05-25T13:27:42.435Z,24.30
2019-05-25T13:30:11.533Z,24.30
2019-05-25T13:32:39.995Z,24.60
2019-05-25T13:35:08.601Z,25.00
2019-05-25T13:37:37.927Z,25.10
2019-05-25T13:40:07.101Z,25.20
2019-05-25T13:42:35.568Z,25.40
2019-05-25T13:45:06.099Z,25.50
2019-05-25T13:47:34.523Z,25.70
2019-05-25T13:50:04.443Z,26.30
2019-05-25T13:52:32.863Z,27.30
2019-05-25T13:55:01.290Z,29.80
2019-05-25T13:57:29.715Z,31.80
2019-05-25T13:59:58.383Z,34.40
2019-05-25T14:02:26.819Z,37.20
2019-05-25T14:04:55.324Z,35.60
2019-05-25T14:07:23.754Z,36.70
2019-05-25T14:09:52.186Z,40.20
2019-05-25T14:12:20.598Z,43.90
2019-05-25T14:14:49.028Z,46.70
2019-05-25T14:17:17.447Z,46.10
2019-05-25T14:19:45.875Z,43.30
2019-05-25T14:22:14.300Z,41.50
2019-05-25T14:24:42.743Z,39.20
2019-05-25T14:27:11.163Z,36.20
2019-05-25T14:29:39.587Z,33.40
2019-05-25T14:32:08.027Z,31.40
2019-05-25T14:34:36.449Z,30.10
2019-05-25T14:37:04.876Z,29.30
2019-05-25T14:39:33.314Z,28.30
2019-05-25T14:42:01.824Z,27.30
2019-05-25T14:44:30.235Z,26.50
2019-05-25T14:46:58.659Z,25.90
2019-05-25T14:49:27.151Z,25.20
2019-05-25T14:51:55.587Z,24.60
2019-05-25T14:54:23.996Z,24.20
2019-05-25T14:56:52.437Z,23.90
2019-05-25T14:59:20.852Z,23.70
2019-05-25T15:02:01.957Z,23.40
2019-05-25T15:04:19.448Z,23.20
2019-05-25T15:06:47.874Z,22.90
2019-05-25T15:09:16.380Z,22.70
2019-05-25T15:11:44.819Z,22.50
2019-05-25T15:14:13.232Z,22.50
2019-05-25T15:16:41.695Z,22.40
2019-05-25T15:19:10.216Z,22.40
2019-05-25T15:21:38.805Z,22.30
2019-05-25T15:24:07.476Z,22.30
2019-05-25T15:26:35.994Z,22.20
2019-05-25T15:29:04.432Z,22.20
2019-05-25T15:31:32.907Z,22.20
2019-05-25T15:34:02.008Z,22.20
2019-05-25T15:36:30.445Z,22.20
2019-05-25T15:38:58.883Z,22.30
2019-05-25T15:41:27.395Z,22.40
2019-05-25T15:43:55.829Z,22.60
2019-05-25T15:46:24.253Z,22.70
2019-05-25T15:48:52.692Z,22.70
2019-05-25T15:51:21.111Z,22.70
2019-05-25T15:53:49.524Z,22.70
2019-05-25T15:56:17.964Z,22.30
2019-05-25T15:58:46.378Z,22.30
2019-05-25T16:01:14.809Z,22.40
2019-05-25T16:04:02.567Z,22.50
2019-05-25T16:06:31.013Z,22.40
2019-05-25T16:09:00.029Z,22.40
2019-05-25T16:11:31.835Z,22.40
2019-05-25T16:13:58.691Z,22.50
2019-05-25T16:16:30.125Z,22.50
2019-05-25T16:18:57.348Z,22.50
2019-05-25T16:21:25.781Z,22.40
2019-05-25T16:23:54.234Z,22.30
2019-05-25T16:26:22.748Z,22.10
2019-05-25T16:28:51.504Z,22.00
2019-05-25T16:31:20.017Z,22.00
2019-05-25T16:33:48.624Z,22.00
2019-05-25T16:36:17.380Z,22.10
2019-05-25T16:38:45.816Z,22.00
2019-05-25T16:41:14.368Z,22.00
2019-05-25T16:43:42.800Z,22.10
2019-05-25T16:46:11.293Z,22.00
2019-05-25T16:48:39.825Z,22.10
2019-05-25T16:51:08.257Z,22.30
2019-05-25T16:53:36.682Z,22.50
2019-05-25T16:56:05.181Z,22.60
2019-05-25T16:58:33.604Z,22.90
2019-05-25T17:01:02.057Z,23.00
2019-05-25T17:03:30.465Z,23.00
2019-05-25T17:05:58.981Z,22.80
2019-05-25T17:08:27.513Z,22.70
2019-05-25T17:10:56.028Z,22.60
2019-05-25T17:13:24.540Z,22.50
2019-05-25T17:15:55.868Z,22.60
2019-05-25T17:18:24.320Z,22.70
2019-05-25T17:20:52.816Z,22.90
2019-05-25T17:23:21.378Z,23.10
2019-05-25T17:25:49.861Z,23.40
2019-05-25T17:28:18.368Z,23.60
2019-05-25T17:30:46.937Z,23.50
2019-05-25T17:33:15.800Z,23.10
2019-05-25T17:35:44.752Z,22.90
2019-05-25T17:38:13.355Z,22.80
2019-05-25T17:40:41.902Z,22.90
2019-05-25T17:43:10.391Z,22.60
2019-05-25T17:45:38.830Z,22.00
2019-05-25T17:48:07.342Z,21.70
2019-05-25T17:50:35.827Z,21.50
2019-05-25T17:53:04.495Z,21.40
2019-05-25T17:55:32.905Z,21.40
2019-05-25T17:58:01.346Z,21.30
2019-05-25T18:00:45.522Z,21.30
2019-05-25T18:03:14.014Z,21.20
2019-05-25T18:05:42.509Z,21.20
2019-05-25T18:08:11.083Z,21.30
2019-05-25T18:10:51.813Z,21.20
2019-05-25T18:13:09.662Z,21.20
2019-05-25T18:15:38.099Z,21.20
2019-05-25T18:18:07.375Z,21.20
2019-05-25T18:20:35.934Z,21.20
2019-05-25T18:23:04.519Z,21.10
2019-05-25T18:25:32.961Z,21.00
2019-05-25T18:28:01.404Z,21.00
2019-05-25T18:30:30.586Z,20.90
2019-05-25T18:32:59.027Z,20.80
2019-05-25T18:35:27.518Z,20.70
2019-05-25T18:37:55.942Z,20.70
2019-05-25T18:40:24.522Z,20.60
2019-05-25T18:42:53.215Z,20.50
2019-05-25T18:45:21.687Z,20.40
2019-05-25T18:47:50.111Z,20.30
2019-05-25T18:50:18.675Z,20.20
2019-05-25T18:52:47.091Z,20.10
2019-05-25T18:55:16.063Z,20.00
2019-05-25T18:57:44.483Z,19.90
2019-05-25T19:00:13.356Z,19.80
2019-05-25T19:02:41.996Z,19.70
2019-05-25T19:05:10.819Z,19.60
2019-05-25T19:07:39.409Z,19.60
2019-05-25T19:10:08.914Z,19.60
2019-05-25T19:12:37.468Z,19.50
2019-05-25T19:15:09.852Z,19.50
2019-05-25T19:17:38.411Z,19.40
2019-05-25T19:20:08.627Z,19.30
2019-05-25T19:22:37.317Z,19.30
2019-05-25T19:25:10.574Z,19.30
2019-05-25T19:27:39.089Z,19.20
2019-05-25T19:30:08.919Z,19.20
2019-05-25T19:32:37.400Z,19.10
2019-05-25T19:35:08.147Z,19.10
2019-05-25T19:37:36.663Z,19.00
2019-05-25T19:40:09.046Z,19.00
2019-05-25T19:42:37.776Z,18.90
2019-05-25T19:45:08.595Z,18.90
2019-05-25T19:47:37.101Z,18.90
2019-05-25T19:50:07.446Z,18.90
2019-05-25T19:52:36.079Z,18.90
2019-05-25T19:55:06.403Z,18.90
2019-05-25T19:57:34.903Z,18.80
2019-05-25T20:00:05.246Z,18.80
2019-05-25T20:02:33.660Z,18.70
2019-05-25T20:05:15.112Z,18.70
2019-05-25T20:07:32.545Z,18.70
2019-05-25T20:10:00.982Z,18.70
2019-05-25T20:12:29.394Z,18.70
2019-05-25T20:14:57.802Z,18.70
2019-05-25T20:17:26.238Z,18.70
2019-05-25T20:19:54.674Z,18.60
2019-05-25T20:22:23.155Z,18.50
2019-05-25T20:24:51.575Z,18.50
2019-05-25T20:27:20.023Z,18.40
2019-05-25T20:29:48.455Z,18.30
2019-05-25T20:32:16.884Z,18.20
2019-05-25T20:34:45.969Z,18.10
2019-05-25T20:37:14.515Z,18.00
2019-05-25T20:39:42.951Z,18.00
2019-05-25T20:42:14.817Z,17.80
2019-05-25T20:44:41.520Z,17.70
2019-05-25T20:47:10.031Z,17.70
2019-05-25T20:49:38.497Z,17.60
2019-05-25T20:52:06.945Z,17.50
2019-05-25T20:54:35.366Z,17.40
2019-05-25T20:57:03.808Z,17.30
2019-05-25T20:59:32.216Z,17.20
2019-05-25T21:02:00.669Z,17.20
2019-05-25T21:04:29.107Z,17.10
2019-05-25T21:06:57.548Z,17.20
2019-05-25T21:09:25.980Z,17.10
2019-05-25T21:11:56.097Z,17.00
2019-05-25T21:14:24.558Z,16.90
2019-05-25T21:16:52.999Z,16.90
2019-05-25T21:19:21.463Z,16.80
2019-05-25T21:21:49.970Z,16.80
2019-05-25T21:24:18.378Z,16.70
2019-05-25T21:26:46.818Z,16.70
2019-05-25T21:29:15.240Z,16.60
2019-05-25T21:31:43.686Z,16.60
2019-05-25T21:34:12.103Z,16.50
2019-05-25T21:36:43.076Z,16.40
2019-05-25T21:39:10.690Z,16.30
2019-05-25T21:41:39.137Z,16.40
2019-05-25T21:44:07.563Z,16.30
2019-05-25T21:46:36.037Z,16.30
2019-05-25T21:49:04.631Z,16.30
2019-05-25T21:51:33.103Z,16.20
2019-05-25T21:54:01.604Z,16.20
2019-05-25T21:56:30.032Z,16.20
2019-05-25T21:58:58.475Z,16.10
2019-05-25T22:01:26.928Z,16.20
2019-05-25T22:03:55.366Z,16.10
2019-05-25T22:06:24.857Z,16.10
2019-05-25T22:08:53.843Z,16.10
2019-05-25T22:11:22.277Z,16.10
2019-05-25T22:13:50.689Z,16.20
2019-05-25T22:16:19.136Z,16.20
2019-05-25T22:18:47.547Z,16.20
2019-05-25T22:21:15.990Z,16.20
2019-05-25T22:23:44.426Z,16.30
2019-05-25T22:26:12.845Z,16.30
2019-05-25T22:28:44.970Z,16.30
2019-05-25T22:31:11.434Z,16.30
2019-05-25T22:33:39.881Z,16.30
2019-05-25T22:36:08.297Z,16.30
2019-05-25T22:38:36.730Z,16.30
2019-05-25T22:41:05.155Z,16.30
2019-05-25T22:43:33.591Z,16.40
2019-05-25T22:46:02.267Z,16.40
2019-05-25T22:48:30.709Z,16.40
2019-05-25T22:50:59.102Z,16.40
2019-05-25T22:53:27.534Z,16.40
2019-05-25T22:55:55.942Z,16.40
2019-05-25T22:58:24.379Z,16.40
2019-05-25T23:00:52.799Z,16.40
2019-05-25T23:03:21.255Z,16.30
2019-05-25T23:05:49.678Z,16.20
2019-05-25T23:08:18.100Z,16.10
2019-05-25T23:10:46.787Z,16.00
2019-05-25T23:13:15.211Z,15.90
2019-05-25T23:15:43.643Z,15.90
2019-05-25T23:18:12.299Z,15.90
2019-05-25T23:20:40.739Z,15.70
2019-05-25T23:23:09.160Z,15.60
2019-05-25T23:25:37.595Z,15.60
2019-05-25T23:28:06.019Z,15.60
2019-05-25T23:30:34.477Z,15.50
2019-05-25T23:33:02.896Z,15.50
2019-05-25T23:35:31.343Z,15.40
2019-05-25T23:38:03.329Z,15.40
2019-05-25T23:40:29.912Z,15.40
2019-05-25T23:42:58.336Z,15.30
2019-05-25T23:45:26.776Z,15.30
2019-05-25T23:47:55.272Z,15.20
2019-05-25T23:50:23.704Z,15.20
2019-05-25T23:52:52.185Z,15.10
2019-05-25T23:55:20.665Z,15.10
2019-05-25T23:57:49.109Z,15.10
